Time;durP1;ratioP1;P1;durP2;ratioP2;P2;SDS_P1;SDS_P2;PMS_P1;PMS_P2;Temp;Humidity;BMP_temperature;BMP_pressure;BME280_temperature;BME280_humidity;BME280_pressure;Samples;Min_cycle;Max_cycle;Signal;HPM_P1;HPM_P2
2023/03/20 00:00:48;;;;;;;12.23;5.90;;;;;;;2.27;76.87;96805.53;5092800;28;20080;-61
2023/03/20 00:03:15;;;;;;;18.35;8.98;;;;;;;2.22;76.40;96808.13;5092974;28;20040;-61
2023/03/20 00:05:42;;;;;;;19.10;8.98;;;;;;;2.16;76.89;96809.88;5092830;28;20048;-60
2023/03/20 00:08:10;;;;;;;14.88;8.55;;;;;;;2.11;76.82;96802.97;5092804;28;20070;-59
2023/03/20 00:10:40;;;;;;;14.95;8.35;;;;;;;2.09;76.79;96802.13;5092784;28;20048;-61
2023/03/20 00:13:11;;;;;;;20.02;10.07;;;;;;;1.98;77.25;96806.38;5092662;28;20059;-61
2023/03/20 00:15:44;;;;;;;17.85;7.75;;;;;;;1.98;77.68;96806.38;5092720;28;20056;-61
2023/03/20 00:18:17;;;;;;;15.20;8.07;;;;;;;1.92;78.16;96812.41;5092644;28;20056;-61
2023/03/20 00:20:45;;;;;;;12.80;8.23;;;;;;;1.91;78.13;96805.53;5092549;28;20066;-62
2023/03/20 00:23:12;;;;;;;16.60;9.32;;;;;;;1.83;78.52;96802.94;5092569;28;20139;-61
2023/03/20 00:25:40;;;;;;;15.73;8.60;;;;;;;1.81;78.12;96796.06;5092684;28;20055;-61
2023/03/20 00:28:36;;;;;;;21.35;8.98;;;;;;;1.79;78.08;96797.78;5092542;28;20131;-60
2023/03/20 00:31:05;;;;;;;15.00;8.13;;;;;;;1.71;78.20;96784.88;5090493;28;20040;-62
2023/03/20 00:33:33;;;;;;;18.00;9.43;;;;;;;1.81;77.81;96788.34;5096276;28;20091;-61
2023/03/20 00:36:01;;;;;;;15.98;8.82;;;;;;;1.74;78.25;96787.44;5096218;28;20056;-59
2023/03/20 00:38:28;;;;;;;17.90;8.48;;;;;;;1.70;78.77;96783.16;5096144;28;20494;-61
2023/03/20 00:40:55;;;;;;;17.30;9.05;;;;;;;1.71;78.89;96779.72;5096059;28;20052;-61
2023/03/20 00:43:23;;;;;;;16.42;8.95;;;;;;;1.65;79.04;96772.81;5096061;28;20044;-62
2023/03/20 00:45:50;;;;;;;20.20;9.65;;;;;;;1.57;79.59;96771.97;5096095;28;20044;-61
2023/03/20 00:48:18;;;;;;;21.70;9.85;;;;;;;1.56;79.57;96770.25;5095968;28;20076;-62
2023/03/20 00:50:45;;;;;;;17.55;9.50;;;;;;;1.60;79.39;96764.25;5095864;28;20058;-59
2023/03/20 00:53:12;;;;;;;21.15;10.43;;;;;;;1.63;79.66;96762.50;5095843;28;20048;-59
2023/03/20 00:55:40;;;;;;;20.10;9.02;;;;;;;1.60;79.67;96754.75;5095906;28;20048;-60
2023/03/20 00:58:09;;;;;;;18.33;9.60;;;;;;;1.58;80.91;96750.47;5095856;28;20131;-61
2023/03/20 01:00:39;;;;;;;20.35;9.60;;;;;;;1.57;80.76;96746.19;5095778;28;20055;-62
2023/03/20 01:03:16;;;;;;;23.45;10.63;;;;;;;1.51;80.71;96747.03;5095839;28;20097;-62
2023/03/20 01:05:46;;;;;;;21.52;11.93;;;;;;;1.54;81.47;96743.59;5095658;28;20056;-60
2023/03/20 01:08:15;;;;;;;21.47;8.97;;;;;;;1.60;82.33;96739.28;5095620;28;20067;-62
2023/03/20 01:10:44;;;;;;;23.08;11.02;;;;;;;1.60;81.78;96743.63;5095628;28;20052;-61
2023/03/20 01:13:19;;;;;;;21.17;11.05;;;;;;;1.51;82.47;96729.84;5095753;28;20075;-59
2023/03/20 01:15:46;;;;;;;18.27;10.18;;;;;;;1.49;82.27;96733.28;5095405;28;20048;-61
2023/03/20 01:18:14;;;;;;;20.88;10.73;;;;;;;1.44;82.28;96730.69;5095382;28;20093;-58
2023/03/20 01:20:42;;;;;;;21.02;11.13;;;;;;;1.49;82.05;96735.84;5095346;28;20508;-61
2023/03/20 01:23:11;;;;;;;19.95;11.07;;;;;;;1.55;82.40;96735.00;5095423;28;20391;-59
2023/03/20 01:25:39;;;;;;;19.63;10.30;;;;;;;1.60;81.87;96733.28;5095397;28;20044;-60
2023/03/20 01:28:14;;;;;;;19.73;9.55;;;;;;;1.66;81.60;96735.00;5095261;28;20052;-59
2023/03/20 01:30:41;;;;;;;18.95;10.00;;;;;;;1.69;81.09;96724.69;5095217;28;20055;-59
2023/03/20 01:33:14;;;;;;;19.17;10.13;;;;;;;1.61;80.74;96728.13;5095231;28;20135;-59
2023/03/20 01:35:42;;;;;;;18.60;9.77;;;;;;;1.59;80.57;96726.41;5095215;28;20048;-61
2023/03/20 01:38:18;;;;;;;16.92;9.65;;;;;;;1.64;80.96;96735.00;5095120;28;20048;-61
2023/03/20 01:40:53;;;;;;;21.77;10.43;;;;;;;1.60;81.09;96725.56;5094905;28;20496;-59
2023/03/20 01:43:22;;;;;;;19.40;10.15;;;;;;;1.61;81.13;96729.84;5093728;28;20044;-61
2023/03/20 01:46:00;;;;;;;19.02;9.60;;;;;;;1.59;80.38;96724.69;5094921;28;20044;-59
2023/03/20 01:48:36;;;;;;;16.63;8.82;;;;;;;1.61;80.54;96724.69;5094683;28;20151;-61
2023/03/20 01:51:04;;;;;;;16.00;9.02;;;;;;;1.48;80.52;96711.78;5094634;28;20075;-61
2023/03/20 01:53:32;;;;;;;20.38;9.82;;;;;;;1.42;81.77;96714.38;5094770;28;20040;-58
2023/03/20 01:56:01;;;;;;;18.98;9.88;;;;;;;1.36;81.75;96709.19;5094682;28;20501;-61
2023/03/20 01:58:35;;;;;;;20.55;10.20;;;;;;;1.36;82.40;96716.94;5094637;28;20052;-58
2023/03/20 02:01:02;;;;;;;15.20;9.43;;;;;;;1.26;82.03;96716.03;5094551;28;20056;-61
2023/03/20 02:03:29;;;;;;;19.20;9.82;;;;;;;1.21;82.30;96713.44;5094466;28;20044;-61
2023/03/20 02:05:57;;;;;;;15.40;9.38;;;;;;;1.25;81.80;96714.34;5094416;28;20134;-61
2023/03/20 02:08:28;;;;;;;19.25;10.02;;;;;;;1.21;81.80;96717.78;5094514;28;20134;-61
2023/03/20 02:10:59;;;;;;;18.17;9.88;;;;;;;1.25;81.63;96716.91;5094449;28;20509;-61
2023/03/20 02:13:29;;;;;;;17.85;9.45;;;;;;;1.26;81.52;96716.91;5094355;28;20071;-60
2023/03/20 02:16:03;;;;;;;18.87;9.40;;;;;;;1.17;81.92;96718.63;5094395;28;20440;-61
2023/03/20 02:18:30;;;;;;;16.52;9.43;;;;;;;1.13;82.69;96722.91;5094312;28;20074;-61
2023/03/20 02:21:31;;;;;;;20.02;10.77;;;;;;;1.19;83.17;96719.47;5094151;28;20083;-61
2023/03/20 02:24:50;;;;;;;22.20;9.45;;;;;;;1.26;82.68;96716.03;5068485;28;20048;-61
2023/03/20 02:27:28;;;;;;;17.55;9.35;;;;;;;1.24;81.68;96717.78;5094185;28;20417;-60
2023/03/20 02:30:30;;;;;;;13.88;8.18;;;;;;;1.26;80.69;96716.91;5093915;28;20501;-60
2023/03/20 02:33:43;;;;;;;14.32;8.13;;;;;;;1.22;80.73;96714.31;5093968;28;20063;-61
2023/03/20 02:36:47;;;;;;;16.25;9.15;;;;;;;1.22;80.79;96707.47;5093937;28;20040;-61
2023/03/20 02:39:39;;;;;;;17.27;8.68;;;;;;;1.16;80.84;96716.88;5094046;28;20084;-61
2023/03/20 02:42:17;;;;;;;14.50;8.45;;;;;;;1.04;81.61;96700.53;5093773;28;20052;-60
2023/03/20 02:44:53;;;;;;;16.77;9.57;;;;;;;1.06;82.13;96714.31;5093859;28;20052;-60
2023/03/20 02:47:25;;;;;;;14.68;8.05;;;;;;;1.09;82.05;96705.72;5093903;28;20044;-61
2023/03/20 02:50:02;;;;;;;14.73;8.38;;;;;;;1.16;81.35;96710.03;5093294;28;20135;-62
2023/03/20 02:52:39;;;;;;;18.10;8.75;;;;;;;1.10;81.03;96710.00;5093567;28;20509;-62
2023/03/20 02:55:16;;;;;;;18.40;9.40;;;;;;;1.04;81.40;96699.69;5093259;28;20564;-61
2023/03/20 02:57:51;;;;;;;15.10;8.13;;;;;;;1.05;81.73;96702.25;5093556;28;20040;-61
2023/03/20 03:00:27;;;;;;;16.58;8.70;;;;;;;1.04;81.70;96703.13;5093453;28;20079;-61
2023/03/20 03:03:01;;;;;;;16.33;9.30;;;;;;;0.98;82.50;96700.53;5093523;28;20044;-60
2023/03/20 03:05:35;;;;;;;17.88;8.70;;;;;;;1.02;83.88;96693.69;5093421;28;20054;-61
2023/03/20 03:08:05;;;;;;;16.55;9.00;;;;;;;1.09;82.78;96696.25;5093388;28;20079;-61
2023/03/20 03:10:38;;;;;;;13.02;8.48;;;;;;;1.02;81.88;96693.69;5093419;28;20052;-61
2023/03/20 03:13:11;;;;;;;14.68;7.03;;;;;;;0.97;81.65;96697.06;5093281;28;20520;-60
2023/03/20 03:15:41;;;;;;;14.98;7.90;;;;;;;1.01;81.11;96695.38;5093345;28;20052;-61
2023/03/20 03:18:14;;;;;;;12.20;7.50;;;;;;;0.97;81.13;96685.94;5093303;28;20070;-61
2023/03/20 03:20:45;;;;;;;16.55;8.70;;;;;;;0.92;81.81;96685.03;5093180;28;20052;-61
2023/03/20 03:23:23;;;;;;;19.08;9.05;;;;;;;0.77;82.08;96683.28;5093269;28;20047;-60
2023/03/20 03:25:56;;;;;;;17.80;10.05;;;;;;;0.80;82.37;96684.16;5093153;28;20048;-61
2023/03/20 03:28:30;;;;;;;18.67;9.38;;;;;;;0.80;82.18;96686.75;5093158;28;20109;-61
2023/03/20 03:30:59;;;;;;;14.10;8.32;;;;;;;0.79;83.15;96682.47;5093030;28;20079;-61
2023/03/20 03:33:30;;;;;;;16.15;8.45;;;;;;;0.80;83.02;96683.28;5093093;28;20040;-61
2023/03/20 03:36:06;;;;;;;15.02;8.10;;;;;;;0.82;82.91;96679.03;5093125;28;20466;-61
2023/03/20 03:38:40;;;;;;;19.42;9.48;;;;;;;0.86;84.03;96681.63;5093058;28;20060;-59
2023/03/20 03:41:20;;;;;;;17.48;9.88;;;;;;;0.83;83.57;96676.44;5092893;28;20048;-60
2023/03/20 03:43:55;;;;;;;16.58;8.65;;;;;;;0.82;83.28;96685.03;5093051;28;20140;-61
2023/03/20 03:46:29;;;;;;;15.45;8.68;;;;;;;0.81;83.17;96690.19;5093042;28;20047;-61
2023/03/20 03:48:58;;;;;;;17.50;8.85;;;;;;;0.81;82.32;96678.16;5093047;28;20082;-62
2023/03/20 03:51:29;;;;;;;16.88;8.95;;;;;;;0.77;82.71;96686.72;5092739;28;20047;-59
2023/03/20 03:54:03;;;;;;;18.48;8.50;;;;;;;0.77;82.62;96680.72;5092877;28;20051;-61
2023/03/20 03:56:35;;;;;;;17.10;9.10;;;;;;;0.70;83.05;96685.00;5092780;28;20048;-61
2023/03/20 03:59:08;;;;;;;18.50;8.73;;;;;;;0.74;82.65;96682.44;5092922;28;20063;-61
2023/03/20 04:01:36;;;;;;;18.80;10.02;;;;;;;0.62;82.91;96678.09;5092708;28;20052;-61
2023/03/20 04:04:07;;;;;;;18.40;10.10;;;;;;;0.59;84.41;96680.66;5092783;28;20048;-61
2023/03/20 04:06:34;;;;;;;18.15;9.38;;;;;;;0.61;84.43;96686.66;5093402;28;20048;-61
2023/03/20 04:09:01;;;;;;;17.98;9.55;;;;;;;0.63;84.35;96691.81;5096676;28;20094;-61
2023/03/20 04:11:28;;;;;;;18.85;8.82;;;;;;;0.69;83.78;96691.00;5096834;28;20478;-61
2023/03/20 04:13:57;;;;;;;21.27;10.30;;;;;;;0.73;82.86;96691.00;5096935;28;20055;-62
2023/03/20 04:16:25;;;;;;;16.50;8.70;;;;;;;0.79;82.23;96695.34;5096695;28;20044;-61
2023/03/20 04:18:54;;;;;;;13.25;7.85;;;;;;;0.84;81.06;96692.78;5096519;28;20457;-61
2023/03/20 04:21:21;;;;;;;16.13;9.13;;;;;;;0.85;80.82;96697.06;5096484;28;20135;-61
2023/03/20 04:23:49;;;;;;;15.48;8.45;;;;;;;0.83;80.52;96691.03;5096497;28;20048;-61
2023/03/20 04:26:16;;;;;;;17.95;8.90;;;;;;;0.72;80.83;96691.03;5096477;28;20051;-61
2023/03/20 04:28:43;;;;;;;23.17;11.18;;;;;;;0.62;81.65;96690.97;5096376;28;20075;-61
2023/03/20 04:31:13;;;;;;;21.73;9.68;;;;;;;0.62;82.94;96695.25;5096344;28;20040;-61
2023/03/20 04:33:40;;;;;;;18.02;10.13;;;;;;;0.59;84.00;96690.97;5096310;28;20044;-61
2023/03/20 04:36:09;;;;;;;17.00;8.88;;;;;;;0.67;84.02;96692.69;5096237;28;20048;-61
2023/03/20 04:38:36;;;;;;;15.75;9.10;;;;;;;0.73;83.58;96693.56;5096138;28;20097;-61
2023/03/20 04:41:03;;;;;;;18.10;9.43;;;;;;;0.81;83.10;96691.03;5096193;28;20090;-61
2023/03/20 04:43:31;;;;;;;24.63;10.32;;;;;;;0.81;83.21;96698.75;5096244;28;20119;-61
2023/03/20 04:45:58;;;;;;;24.15;10.98;;;;;;;0.77;83.79;96702.19;5096155;28;20131;-61
2023/03/20 04:48:27;;;;;;;20.67;10.10;;;;;;;0.90;83.78;96700.50;5095982;28;20052;-61
2023/03/20 04:50:55;;;;;;;16.48;9.50;;;;;;;0.97;83.03;96696.25;5095936;28;20048;-61
2023/03/20 04:53:22;;;;;;;19.38;10.85;;;;;;;0.99;83.15;96700.53;5095988;28;20098;-61
2023/03/20 04:55:49;;;;;;;22.98;10.63;;;;;;;1.10;84.25;96700.56;5096221;28;20455;-61
2023/03/20 04:58:17;;;;;;;18.30;9.27;;;;;;;1.20;84.15;96695.44;5095823;28;20101;-61
2023/03/20 05:00:44;;;;;;;15.98;9.45;;;;;;;1.30;83.44;96701.47;5095710;28;20044;-61
2023/03/20 05:03:12;;;;;;;17.13;9.15;;;;;;;1.41;82.43;96704.06;5095730;28;20048;-61
2023/03/20 05:05:41;;;;;;;16.98;9.38;;;;;;;1.56;81.49;96711.78;5095759;28;20044;-61
2023/03/20 05:08:08;;;;;;;15.70;8.73;;;;;;;1.97;80.21;96712.66;5095679;28;20079;-61
2023/03/20 05:10:36;;;;;;;12.52;7.40;;;;;;;2.87;78.38;96710.69;5095595;28;20040;-61
2023/03/20 05:13:03;;;;;;;15.48;8.77;;;;;;;3.84;75.25;96717.81;5095670;28;20036;-61
2023/03/20 05:15:30;;;;;;;19.95;8.35;;;;;;;4.80;70.91;96711.69;5095489;28;20040;-61
2023/03/20 05:17:57;;;;;;;10.52;7.47;;;;;;;5.66;66.95;96722.63;5095123;28;20109;-61
2023/03/20 05:20:25;;;;;;;12.05;7.38;;;;;;;6.48;62.87;96725.59;5095439;28;20493;-61
2023/03/20 05:22:54;;;;;;;13.55;7.97;;;;;;;7.31;59.50;96726.53;5095295;28;20080;-62
2023/03/20 05:25:22;;;;;;;14.13;7.63;;;;;;;7.98;56.41;96732.84;5095301;28;20048;-61
2023/03/20 05:27:49;;;;;;;17.33;8.02;;;;;;;8.41;54.93;96723.06;5095311;28;20048;-61
2023/03/20 05:30:18;;;;;;;14.20;8.80;;;;;;;8.97;54.56;96712.88;5095177;28;20043;-60
2023/03/20 05:32:45;;;;;;;13.23;8.20;;;;;;;9.56;54.36;96716.38;5095279;28;20542;-61
2023/03/20 05:35:13;;;;;;;15.35;8.98;;;;;;;10.28;53.02;96726.28;5095150;28;20051;-61
2023/03/20 05:37:41;;;;;;;13.68;8.40;;;;;;;10.98;52.23;96726.47;5095175;28;20505;-61
2023/03/20 05:40:13;;;;;;;23.05;9.05;;;;;;;11.80;48.92;96719.88;5095258;28;20367;-61
2023/03/20 05:42:42;;;;;;;13.32;9.05;;;;;;;12.64;47.79;96715.59;5094859;28;20052;-61
2023/03/20 05:45:11;;;;;;;12.75;8.65;;;;;;;13.48;45.76;96716.25;5094958;28;20136;-61
2023/03/20 05:47:38;;;;;;;13.48;8.75;;;;;;;13.85;44.03;96719.78;5094847;28;20488;-61
2023/03/20 05:50:07;;;;;;;12.93;8.52;;;;;;;14.43;42.61;96710.84;5094779;28;20056;-61
2023/03/20 05:52:35;;;;;;;9.23;5.85;;;;;;;14.81;41.44;96715.94;5094689;28;20401;-61
2023/03/20 05:55:03;;;;;;;12.48;8.18;;;;;;;15.37;40.71;96712.13;5094786;28;20044;-61
2023/03/20 05:57:32;;;;;;;11.68;8.93;;;;;;;15.72;39.96;96708.47;5094652;28;20044;-61
2023/03/20 05:59:59;;;;;;;10.57;8.23;;;;;;;16.11;39.60;96716.88;5094635;28;20044;-61
2023/03/20 06:02:26;;;;;;;11.80;9.00;;;;;;;16.55;38.96;96710.78;5094528;28;20470;-61
2023/03/20 06:04:55;;;;;;;12.18;8.65;;;;;;;16.81;38.26;96707.50;5094612;28;20048;-62
2023/03/20 06:07:23;;;;;;;14.02;9.25;;;;;;;17.33;37.53;96710.53;5094465;28;20054;-61
2023/03/20 06:09:50;;;;;;;13.05;9.05;;;;;;;17.65;37.78;96693.59;5094515;28;20513;-61
2023/03/20 06:12:18;;;;;;;12.60;8.27;;;;;;;17.98;37.12;96702.06;5094261;28;20054;-61
2023/03/20 06:14:47;;;;;;;12.63;9.40;;;;;;;18.50;36.67;96697.78;5094165;28;20050;-62
2023/03/20 06:17:15;;;;;;;12.73;8.82;;;;;;;18.76;36.72;96696.94;5094312;28;20098;-61
2023/03/20 06:19:43;;;;;;;12.23;8.63;;;;;;;19.29;35.68;96688.84;5094259;28;20044;-61
2023/03/20 06:22:10;;;;;;;13.23;9.48;;;;;;;19.57;36.25;96686.88;5094376;28;20052;-61
2023/03/20 06:24:37;;;;;;;13.43;9.57;;;;;;;19.66;35.34;96688.00;5094262;28;20058;-60
2023/03/20 06:27:05;;;;;;;13.38;10.27;;;;;;;19.46;35.29;96692.09;5094092;28;20052;-61
2023/03/20 06:29:32;;;;;;;14.63;10.48;;;;;;;19.21;35.58;96703.63;5093454;28;20538;-61
2023/03/20 06:32:02;;;;;;;12.90;8.93;;;;;;;18.94;35.91;96705.44;5093989;28;20087;-61
2023/03/20 06:34:29;;;;;;;17.63;10.53;;;;;;;18.27;36.85;96712.56;5094061;28;20486;-60
2023/03/20 06:36:57;;;;;;;15.25;9.85;;;;;;;17.73;37.43;96706.31;5093933;28;20059;-61
2023/03/20 06:39:25;;;;;;;15.05;9.77;;;;;;;18.04;37.78;96709.59;5093958;28;20044;-61
2023/03/20 06:41:52;;;;;;;12.73;9.65;;;;;;;18.18;38.24;96709.56;5093868;28;20413;-60
2023/03/20 06:44:19;;;;;;;16.95;10.52;;;;;;;17.81;39.11;96712.81;5093937;28;20044;-61
2023/03/20 06:46:46;;;;;;;15.77;9.95;;;;;;;17.66;39.88;96712.00;5093763;28;20498;-61
2023/03/20 06:49:15;;;;;;;18.02;12.45;;;;;;;17.50;39.96;96709.50;5093729;28;20058;-61
2023/03/20 06:51:44;;;;;;;16.02;11.10;;;;;;;17.98;38.80;96712.66;5093758;28;20091;-60
2023/03/20 06:54:11;;;;;;;17.02;10.52;;;;;;;17.86;38.32;96709.88;5093706;28;20048;-61
2023/03/20 06:56:38;;;;;;;14.70;10.82;;;;;;;17.80;39.15;96702.31;5093624;28;20613;-60
2023/03/20 06:59:06;;;;;;;14.40;10.40;;;;;;;18.04;38.76;96701.66;5093387;28;20070;-61
2023/03/20 07:01:33;;;;;;;13.88;9.27;;;;;;;17.98;38.66;96692.34;5093398;28;20055;-61
2023/03/20 07:04:00;;;;;;;14.45;10.43;;;;;;;17.86;39.16;96699.28;5093564;28;20044;-61
2023/03/20 07:06:29;;;;;;;12.07;9.68;;;;;;;17.35;40.21;96692.81;5093489;28;20051;-60
2023/03/20 07:08:56;;;;;;;15.23;9.88;;;;;;;17.12;40.93;96700.38;5093476;28;20117;-61
2023/03/20 07:11:23;;;;;;;14.50;9.73;;;;;;;16.92;41.96;96691.84;5093531;28;20098;-61
2023/03/20 07:13:50;;;;;;;19.85;10.55;;;;;;;16.95;42.10;96695.25;5093315;28;20048;-61
2023/03/20 07:16:18;;;;;;;13.40;9.68;;;;;;;16.98;42.44;96695.06;5093348;28;20155;-60
2023/03/20 07:18:45;;;;;;;14.35;9.95;;;;;;;16.96;42.65;96691.66;5093392;28;20051;-61
2023/03/20 07:21:17;;;;;;;11.07;8.40;;;;;;;16.96;42.93;96689.88;5093189;28;20040;-61
2023/03/20 07:23:46;;;;;;;13.82;9.90;;;;;;;16.77;43.51;96692.81;5093365;28;20044;-60
2023/03/20 07:26:13;;;;;;;12.75;9.32;;;;;;;16.72;43.93;96693.06;5093088;28;20048;-60
2023/03/20 07:28:40;;;;;;;11.75;9.43;;;;;;;16.70;44.20;96688.84;5093388;28;20048;-61
2023/03/20 07:31:10;;;;;;;12.95;9.90;;;;;;;17.07;42.81;96688.41;5093157;28;20051;-61
2023/03/20 07:33:37;;;;;;;13.95;9.88;;;;;;;17.37;41.88;96685.59;5093135;28;20048;-61
2023/03/20 07:36:05;;;;;;;16.33;9.70;;;;;;;17.59;41.33;96693.97;5093143;28;20123;-61
2023/03/20 07:38:32;;;;;;;14.68;9.45;;;;;;;17.42;41.78;96686.19;5093076;28;20498;-60
2023/03/20 07:41:01;;;;;;;15.80;9.98;;;;;;;17.45;40.60;96685.13;5094473;28;20048;-60
2023/03/20 07:43:29;;;;;;;12.82;9.30;;;;;;;17.08;42.33;96688.31;5097370;28;20456;-60
2023/03/20 07:45:56;;;;;;;12.13;8.57;;;;;;;16.58;43.75;96688.63;5097469;28;20052;-60
2023/03/20 07:48:23;;;;;;;12.32;8.15;;;;;;;16.75;44.18;96681.47;5097122;28;20040;-61
2023/03/20 07:50:50;;;;;;;12.73;8.43;;;;;;;16.71;43.67;96674.69;5096908;28;20044;-60
2023/03/20 07:53:17;;;;;;;12.65;8.57;;;;;;;16.57;42.56;96679.00;5097190;28;20048;-61
2023/03/20 07:55:45;;;;;;;12.68;8.50;;;;;;;16.79;43.42;96680.34;5097106;28;20474;-61
2023/03/20 07:58:13;;;;;;;11.20;8.52;;;;;;;17.16;43.44;96675.44;5097032;28;20040;-60
2023/03/20 08:00:41;;;;;;;13.70;8.70;;;;;;;17.52;41.14;96681.13;5097317;28;20044;-60
2023/03/20 08:03:08;;;;;;;15.48;8.10;;;;;;;17.42;42.81;96677.38;5096835;28;20062;-60
2023/03/20 08:05:35;;;;;;;11.70;8.77;;;;;;;17.60;42.96;96678.00;5096926;28;20048;-60
2023/03/20 08:08:02;;;;;;;13.63;8.35;;;;;;;17.77;41.70;96679.56;5096796;28;20040;-60
2023/03/20 08:10:30;;;;;;;11.75;8.13;;;;;;;17.64;41.44;96676.03;5096813;28;20459;-60
2023/03/20 08:12:57;;;;;;;14.52;8.80;;;;;;;17.73;40.68;96678.06;5096714;28;20048;-60
2023/03/20 08:15:26;;;;;;;10.93;8.07;;;;;;;17.48;41.96;96679.66;5096876;28;20544;-60
2023/03/20 08:17:53;;;;;;;9.45;7.40;;;;;;;17.47;42.08;96669.16;5096879;28;20509;-60
2023/03/20 08:20:21;;;;;;;15.07;8.13;;;;;;;17.47;41.43;96669.16;5096628;28;20044;-60
2023/03/20 08:22:49;;;;;;;12.32;9.15;;;;;;;17.66;40.99;96669.69;5096605;28;20052;-60
2023/03/20 08:25:17;;;;;;;13.13;8.02;;;;;;;17.58;40.99;96669.31;5096569;28;20048;-60
2023/03/20 08:27:44;;;;;;;14.70;9.50;;;;;;;17.50;42.81;96668.97;5096565;28;20051;-61
2023/03/20 08:30:12;;;;;;;13.18;8.10;;;;;;;17.65;44.24;96670.63;5096477;28;20076;-61
2023/03/20 08:32:41;;;;;;;9.82;7.43;;;;;;;17.95;41.00;96674.03;5096470;28;20124;-60
2023/03/20 08:35:10;;;;;;;11.98;8.50;;;;;;;17.91;42.29;96673.34;5096371;28;20095;-60
2023/03/20 08:37:37;;;;;;;14.10;7.85;;;;;;;17.72;41.32;96667.56;5096335;28;20054;-60
2023/03/20 08:40:06;;;;;;;10.57;7.78;;;;;;;17.82;40.89;96673.94;5096249;28;20490;-61
2023/03/20 08:42:33;;;;;;;13.52;7.47;;;;;;;17.88;42.43;96664.78;5096081;28;20055;-61
2023/03/20 08:45:00;;;;;;;9.73;6.60;;;;;;;17.85;41.75;96663.16;5096202;28;20490;-60
2023/03/20 08:47:27;;;;;;;10.23;7.22;;;;;;;17.61;42.06;96661.19;5096226;28;20048;-60
2023/03/20 08:49:56;;;;;;;8.75;6.65;;;;;;;17.88;42.96;96659.50;5095937;28;20058;-61
2023/03/20 08:52:23;;;;;;;11.90;8.45;;;;;;;18.15;42.48;96663.94;5095312;28;20044;-60
2023/03/20 08:54:50;;;;;;;11.77;8.63;;;;;;;18.13;42.32;96664.03;5095928;28;20486;-60
2023/03/20 08:57:17;;;;;;;19.10;11.18;;;;;;;18.45;41.28;96665.44;5095933;28;20510;-60
2023/03/20 08:59:45;;;;;;;19.85;9.30;;;;;;;18.22;41.49;96665.22;5095871;28;20055;-60
2023/03/20 09:02:12;;;;;;;12.35;9.02;;;;;;;18.33;41.90;96672.41;5095796;28;20044;-60
2023/03/20 09:04:39;;;;;;;19.70;10.63;;;;;;;17.91;42.19;96664.59;5095707;28;20414;-61
2023/03/20 09:07:09;;;;;;;15.48;11.25;;;;;;;17.90;42.40;96665.53;5095849;28;20052;-61
2023/03/20 09:09:36;;;;;;;18.25;10.50;;;;;;;17.78;42.89;96668.03;5095799;28;20497;-61
2023/03/20 09:12:03;;;;;;;22.70;10.32;;;;;;;17.79;42.94;96664.44;5095622;28;20485;-60
2023/03/20 09:14:30;;;;;;;14.30;9.40;;;;;;;17.85;43.45;96659.69;5095939;28;20048;-61
2023/03/20 09:16:57;;;;;;;15.25;9.88;;;;;;;17.90;42.83;96661.09;5095608;28;20051;-60
2023/03/20 09:19:25;;;;;;;18.85;11.15;;;;;;;17.85;43.09;96665.81;5095518;28;20075;-61
2023/03/20 09:21:52;;;;;;;18.48;11.18;;;;;;;17.63;43.84;96663.72;5095409;28;20044;-61
2023/03/20 09:24:21;;;;;;;16.90;10.52;;;;;;;17.70;44.91;96659.72;5095334;28;20055;-61
2023/03/20 09:26:49;;;;;;;19.90;10.60;;;;;;;17.78;42.97;96660.09;5095378;28;20098;-61
2023/03/20 09:29:16;;;;;;;16.17;9.85;;;;;;;17.94;41.99;96656.41;5095339;28;20469;-61
2023/03/20 09:31:43;;;;;;;18.00;10.57;;;;;;;17.76;42.09;96661.16;5095220;28;20051;-61
2023/03/20 09:34:10;;;;;;;16.52;11.38;;;;;;;17.53;43.61;96651.13;5095482;28;20044;-61
2023/03/20 09:36:38;;;;;;;16.83;10.27;;;;;;;17.81;42.07;96661.69;5095095;28;20097;-61
2023/03/20 09:39:05;;;;;;;21.65;10.88;;;;;;;17.65;42.65;96661.84;5095210;28;20142;-61
2023/03/20 09:41:36;;;;;;;15.82;10.23;;;;;;;17.51;42.92;96663.59;5095163;28;20420;-61
2023/03/20 09:44:13;;;;;;;22.02;11.20;;;;;;;17.46;43.36;96657.72;5095073;28;20055;-61
2023/03/20 09:47:13;;;;;;;16.85;10.20;;;;;;;17.31;44.21;96659.59;5094982;28;20056;-61
2023/03/20 09:49:49;;;;;;;22.75;11.52;;;;;;;17.43;44.93;96658.78;5061219;28;20397;-61
2023/03/20 09:52:24;;;;;;;19.63;11.25;;;;;;;17.72;43.23;96651.69;5094791;28;20090;-60
2023/03/20 09:54:55;;;;;;;21.95;11.02;;;;;;;17.91;43.26;96649.53;5094748;28;20097;-60
2023/03/20 09:57:28;;;;;;;18.38;11.20;;;;;;;18.02;43.08;96645.34;5094999;28;20048;-61
2023/03/20 09:59:59;;;;;;;19.83;11.57;;;;;;;17.97;42.73;96644.81;5094663;28;20127;-61
2023/03/20 10:02:39;;;;;;;16.42;10.00;;;;;;;17.88;42.78;96647.09;5094605;28;20059;-61
2023/03/20 10:05:18;;;;;;;21.77;11.90;;;;;;;17.94;43.91;96643.19;5093585;28;20071;-61
2023/03/20 10:07:45;;;;;;;14.98;11.25;;;;;;;18.00;43.24;96637.50;5094635;28;20048;-61
2023/03/20 10:10:19;;;;;;;18.10;10.52;;;;;;;17.97;43.31;96636.88;5094481;28;20082;-60
2023/03/20 10:13:00;;;;;;;17.75;10.57;;;;;;;18.13;43.12;96629.63;5094506;28;20417;-61
2023/03/20 10:15:42;;;;;;;18.58;12.05;;;;;;;18.31;43.47;96630.16;5094427;28;20162;-61
2023/03/20 10:18:18;;;;;;;15.98;9.95;;;;;;;18.15;43.19;96630.34;5094440;28;20040;-61
2023/03/20 10:20:55;;;;;;;20.58;10.43;;;;;;;18.01;43.17;96627.78;5094362;28;20417;-60
2023/03/20 10:23:31;;;;;;;15.77;11.32;;;;;;;17.90;43.69;96628.47;5094366;28;20059;-61
2023/03/20 10:26:06;;;;;;;19.45;9.98;;;;;;;18.06;42.74;96636.22;5094026;28;20044;-60
2023/03/20 10:28:43;;;;;;;20.88;10.07;;;;;;;18.00;42.75;96621.63;5094153;28;20078;-60
2023/03/20 10:31:26;;;;;;;16.38;10.10;;;;;;;18.01;43.38;96622.47;5094133;28;20051;-61
2023/03/20 10:34:03;;;;;;;21.67;11.32;;;;;;;17.92;42.60;96616.88;5093976;28;20087;-61
2023/03/20 10:36:46;;;;;;;27.13;10.95;;;;;;;18.03;43.21;96605.53;5094145;28;20456;-61
2023/03/20 10:39:23;;;;;;;15.50;10.57;;;;;;;18.09;43.43;96606.09;5094198;28;20405;-61
2023/03/20 10:41:55;;;;;;;18.40;11.18;;;;;;;18.12;42.63;96598.81;5093967;28;20421;-60
2023/03/20 10:44:31;;;;;;;14.73;9.15;;;;;;;18.08;44.43;96599.06;5093551;28;20417;-60
2023/03/20 10:47:02;;;;;;;13.65;9.90;;;;;;;18.20;43.35;96598.28;5093896;28;20080;-60
2023/03/20 10:49:36;;;;;;;;;;;;;;;18.47;41.95;96599.13;5094074;28;20577;-61
2023/03/20 10:52:10;;;;;;;15.40;9.75;;;;;;;18.36;40.96;96587.47;5093811;28;19959;-60
2023/03/20 10:54:46;;;;;;;13.40;9.18;;;;;;;18.31;42.00;96586.97;5094053;28;20109;-61
2023/03/20 10:57:21;;;;;;;18.70;10.00;;;;;;;18.38;42.48;96590.03;5093701;28;20184;-61
2023/03/20 10:59:51;;;;;;;17.52;10.23;;;;;;;18.38;42.06;96582.94;5093640;28;20052;-60
2023/03/20 11:02:20;;;;;;;23.77;11.18;;;;;;;18.34;43.69;96580.59;5093582;28;20505;-61
2023/03/20 11:04:48;;;;;;;13.80;8.98;;;;;;;18.40;42.32;96575.75;5093400;28;20047;-60
2023/03/20 11:07:23;;;;;;;15.02;9.27;;;;;;;18.47;42.83;96572.66;5093775;28;20052;-60
2023/03/20 11:10:10;;;;;;;16.52;9.65;;;;;;;18.39;41.71;96565.25;5093461;28;20437;-60
2023/03/20 11:12:39;;;;;;;18.02;9.93;;;;;;;18.24;42.05;96562.72;5093399;28;20051;-60
2023/03/20 11:15:19;;;;;;;14.18;9.40;;;;;;;18.18;42.46;96558.69;5093330;28;20040;-60
2023/03/20 11:17:55;;;;;;;14.23;9.05;;;;;;;18.20;42.92;96558.59;5093590;28;20073;-61
2023/03/20 11:20:23;;;;;;;13.35;8.95;;;;;;;18.20;42.56;96550.63;5093551;28;20048;-60
2023/03/20 11:22:58;;;;;;;17.13;8.82;;;;;;;18.39;42.24;96550.22;5093276;28;20047;-60
2023/03/20 11:25:30;;;;;;;14.38;9.13;;;;;;;18.47;43.46;96549.69;5093256;28;20040;-61
2023/03/20 11:28:19;;;;;;;11.38;8.68;;;;;;;18.61;43.75;96545.22;5093255;28;20131;-60
2023/03/20 11:30:49;;;;;;;13.20;9.05;;;;;;;18.60;40.90;96530.28;5093277;28;20405;-61
2023/03/20 11:33:17;;;;;;;14.77;8.48;;;;;;;18.71;41.91;96529.50;5093290;28;20135;-60
2023/03/20 11:35:47;;;;;;;12.95;8.68;;;;;;;18.74;41.33;96527.50;5093396;28;20044;-60
2023/03/20 11:38:16;;;;;;;13.15;8.48;;;;;;;18.78;40.95;96528.97;5093294;28;20047;-60
2023/03/20 11:40:44;;;;;;;14.10;8.75;;;;;;;18.71;42.48;96522.41;5093264;28;20076;-61
2023/03/20 11:43:14;;;;;;;11.55;7.95;;;;;;;18.73;41.80;96522.31;5093333;28;20087;-60